sensor_id;sensor_type;location;lat;lon;timestamp;temperature;humidity
22235;DHT22;11286;45.596;5.284;2022-12-29T00:01:15;10.40;99.90
22235;DHT22;11286;45.596;5.284;2022-12-29T00:03:40;10.40;99.90
22235;DHT22;11286;45.596;5.284;2022-12-29T00:06:06;10.40;99.90
22235;DHT22;11286;45.596;5.284;2022-12-29T00:08:32;10.50;99.90
22235;DHT22;11286;45.596;5.284;2022-12-29T00:11:11;10.50;99.90
22235;DHT22;11286;45.596;5.284;2022-12-29T00:13:37;10.40;99.90
22235;DHT22;11286;45.596;5.284;2022-12-29T00:16:22;10.60;99.90
22235;DHT22;11286;45.596;5.284;2022-12-29T00:18:48;10.60;99.90
22235;DHT22;11286;45.596;5.284;2022-12-29T00:21:15;10.50;99.90
22235;DHT22;11286;45.596;5.284;2022-12-29T00:24:00;10.60;99.90
22235;DHT22;11286;45.596;5.284;2022-12-29T00:26:45;10.60;99.90
22235;DHT22;11286;45.596;5.284;2022-12-29T00:29:29;10.60;99.90
22235;DHT22;11286;45.596;5.284;2022-12-29T00:32:13;10.60;99.90
22235;DHT22;11286;45.596;5.284;2022-12-29T00:34:57;10.70;99.90
22235;DHT22;11286;45.596;5.284;2022-12-29T00:37:40;10.70;99.90
22235;DHT22;11286;45.596;5.284;2022-12-29T00:40:25;10.70;99.90
22235;DHT22;11286;45.596;5.284;2022-12-29T00:43:09;10.70;99.90
22235;DHT22;11286;45.596;5.284;2022-12-29T00:45:53;10.70;99.90
22235;DHT22;11286;45.596;5.284;2022-12-29T00:48:19;10.70;99.90
22235;DHT22;11286;45.596;5.284;2022-12-29T00:51:05;10.60;99.90
22235;DHT22;11286;45.596;5.284;2022-12-29T00:53:31;10.60;99.90
22235;DHT22;11286;45.596;5.284;2022-12-29T00:55:57;10.70;99.90
22235;DHT22;11286;45.596;5.284;2022-12-29T00:58:22;10.70;99.90
22235;DHT22;11286;45.596;5.284;2022-12-29T01:00:48;10.70;99.90
22235;DHT22;11286;45.596;5.284;2022-12-29T01:03:13;10.70;99.90
22235;DHT22;11286;45.596;5.284;2022-12-29T01:05:39;10.80;99.90
22235;DHT22;11286;45.596;5.284;2022-12-29T01:08:05;10.80;99.90
22235;DHT22;11286;45.596;5.284;2022-12-29T01:10:30;10.70;99.90
22235;DHT22;11286;45.596;5.284;2022-12-29T01:12:56;10.70;99.90
22235;DHT22;11286;45.596;5.284;2022-12-29T01:15:22;10.70;99.90
22235;DHT22;11286;45.596;5.284;2022-12-29T01:17:47;10.70;99.90
22235;DHT22;11286;45.596;5.284;2022-12-29T01:20:13;10.80;99.90
22235;DHT22;11286;45.596;5.284;2022-12-29T01:22:39;10.80;99.90
22235;DHT22;11286;45.596;5.284;2022-12-29T01:25:06;10.80;99.90
22235;DHT22;11286;45.596;5.284;2022-12-29T01:27:31;10.80;99.90
22235;DHT22;11286;45.596;5.284;2022-12-29T01:29:57;10.80;99.90
22235;DHT22;11286;45.596;5.284;2022-12-29T01:32:23;10.80;99.90
22235;DHT22;11286;45.596;5.284;2022-12-29T01:34:48;10.80;99.90
22235;DHT22;11286;45.596;5.284;2022-12-29T01:37:14;10.80;99.90
22235;DHT22;11286;45.596;5.284;2022-12-29T01:39:40;10.90;99.90
22235;DHT22;11286;45.596;5.284;2022-12-29T01:42:08;10.80;99.90
22235;DHT22;11286;45.596;5.284;2022-12-29T01:44:55;10.80;99.90
22235;DHT22;11286;45.596;5.284;2022-12-29T01:49:55;10.80;99.90
22235;DHT22;11286;45.596;5.284;2022-12-29T01:52:23;10.80;99.90
22235;DHT22;11286;45.596;5.284;2022-12-29T01:54:51;10.90;99.90
22235;DHT22;11286;45.596;5.284;2022-12-29T01:57:22;10.90;99.90
22235;DHT22;11286;45.596;5.284;2022-12-29T01:59:58;10.90;99.90
22235;DHT22;11286;45.596;5.284;2022-12-29T02:02:25;10.90;99.90
22235;DHT22;11286;45.596;5.284;2022-12-29T02:04:52;10.80;99.90
22235;DHT22;11286;45.596;5.284;2022-12-29T02:07:21;10.70;99.90
22235;DHT22;11286;45.596;5.284;2022-12-29T02:09:49;10.70;99.90
22235;DHT22;11286;45.596;5.284;2022-12-29T02:12:20;10.70;99.90
22235;DHT22;11286;45.596;5.284;2022-12-29T02:14:48;10.70;99.90
22235;DHT22;11286;45.596;5.284;2022-12-29T02:20:27;10.70;99.90
22235;DHT22;11286;45.596;5.284;2022-12-29T02:26:04;10.60;99.90
22235;DHT22;11286;45.596;5.284;2022-12-29T02:29:01;10.60;99.90
22235;DHT22;11286;45.596;5.284;2022-12-29T02:34:06;10.70;99.90
22235;DHT22;11286;45.596;5.284;2022-12-29T02:39:13;10.60;99.90
22235;DHT22;11286;45.596;5.284;2022-12-29T02:41:50;10.70;99.90
22235;DHT22;11286;45.596;5.284;2022-12-29T02:47:10;10.60;99.90
22235;DHT22;11286;45.596;5.284;2022-12-29T02:49:52;10.60;99.90
22235;DHT22;11286;45.596;5.284;2022-12-29T02:52:30;10.60;99.90
22235;DHT22;11286;45.596;5.284;2022-12-29T02:54:58;10.70;99.90
22235;DHT22;11286;45.596;5.284;2022-12-29T03:00:02;10.50;99.90
22235;DHT22;11286;45.596;5.284;2022-12-29T03:02:50;10.40;99.90
22235;DHT22;11286;45.596;5.284;2022-12-29T03:08:17;10.30;99.90
22235;DHT22;11286;45.596;5.284;2022-12-29T03:10:54;10.30;99.90
22235;DHT22;11286;45.596;5.284;2022-12-29T03:16:28;10.20;99.90
22235;DHT22;11286;45.596;5.284;2022-12-29T03:19:07;10.30;99.90
22235;DHT22;11286;45.596;5.284;2022-12-29T03:21:55;10.30;99.90
22235;DHT22;11286;45.596;5.284;2022-12-29T03:24:43;10.30;99.90
22235;DHT22;11286;45.596;5.284;2022-12-29T03:27:13;10.30;99.90
22235;DHT22;11286;45.596;5.284;2022-12-29T03:29:45;10.30;99.90
22235;DHT22;11286;45.596;5.284;2022-12-29T03:32:12;10.30;99.90
22235;DHT22;11286;45.596;5.284;2022-12-29T03:34:39;10.30;99.90
22235;DHT22;11286;45.596;5.284;2022-12-29T03:37:09;10.30;99.90
22235;DHT22;11286;45.596;5.284;2022-12-29T03:39:36;10.30;99.90
22235;DHT22;11286;45.596;5.284;2022-12-29T03:42:05;10.30;99.90
22235;DHT22;11286;45.596;5.284;2022-12-29T03:44:41;10.30;99.90
22235;DHT22;11286;45.596;5.284;2022-12-29T03:47:07;10.40;99.90
22235;DHT22;11286;45.596;5.284;2022-12-29T03:49:35;10.40;99.90
22235;DHT22;11286;45.596;5.284;2022-12-29T03:52:00;10.50;99.90
22235;DHT22;11286;45.596;5.284;2022-12-29T03:54:26;10.50;99.90
22235;DHT22;11286;45.596;5.284;2022-12-29T03:56:52;10.60;99.90
22235;DHT22;11286;45.596;5.284;2022-12-29T03:59:17;10.60;99.90
22235;DHT22;11286;45.596;5.284;2022-12-29T04:01:43;10.60;99.90
22235;DHT22;11286;45.596;5.284;2022-12-29T04:04:09;10.60;99.90
22235;DHT22;11286;45.596;5.284;2022-12-29T04:06:35;10.70;99.90
22235;DHT22;11286;45.596;5.284;2022-12-29T04:09:00;10.70;99.90
22235;DHT22;11286;45.596;5.284;2022-12-29T04:11:26;10.70;99.90
22235;DHT22;11286;45.596;5.284;2022-12-29T04:13:52;10.70;99.90
22235;DHT22;11286;45.596;5.284;2022-12-29T04:16:17;10.70;99.90
22235;DHT22;11286;45.596;5.284;2022-12-29T04:18:43;10.70;99.90
22235;DHT22;11286;45.596;5.284;2022-12-29T04:21:09;10.70;99.90
22235;DHT22;11286;45.596;5.284;2022-12-29T04:23:36;10.70;99.90
22235;DHT22;11286;45.596;5.284;2022-12-29T04:26:02;10.70;99.90
22235;DHT22;11286;45.596;5.284;2022-12-29T04:28:28;10.70;99.90
22235;DHT22;11286;45.596;5.284;2022-12-29T04:30:55;10.70;99.90
22235;DHT22;11286;45.596;5.284;2022-12-29T04:33:21;10.70;99.90
22235;DHT22;11286;45.596;5.284;2022-12-29T04:35:47;10.70;99.90
22235;DHT22;11286;45.596;5.284;2022-12-29T04:38:13;10.70;99.90
22235;DHT22;11286;45.596;5.284;2022-12-29T04:40:40;10.70;99.90
22235;DHT22;11286;45.596;5.284;2022-12-29T04:43:06;10.70;99.90
22235;DHT22;11286;45.596;5.284;2022-12-29T04:45:32;10.70;99.90
22235;DHT22;11286;45.596;5.284;2022-12-29T04:47:58;10.80;99.90
22235;DHT22;11286;45.596;5.284;2022-12-29T04:50:23;10.80;99.90
22235;DHT22;11286;45.596;5.284;2022-12-29T04:52:49;10.80;99.90
22235;DHT22;11286;45.596;5.284;2022-12-29T04:55:15;10.90;99.90
22235;DHT22;11286;45.596;5.284;2022-12-29T04:57:41;10.90;99.90
22235;DHT22;11286;45.596;5.284;2022-12-29T05:00:07;10.90;99.90
22235;DHT22;11286;45.596;5.284;2022-12-29T05:02:35;10.90;99.90
22235;DHT22;11286;45.596;5.284;2022-12-29T05:05:01;11.00;99.90
22235;DHT22;11286;45.596;5.284;2022-12-29T05:07:26;11.00;99.90
22235;DHT22;11286;45.596;5.284;2022-12-29T05:09:52;10.90;99.90
22235;DHT22;11286;45.596;5.284;2022-12-29T05:12:18;10.90;99.90
22235;DHT22;11286;45.596;5.284;2022-12-29T05:14:43;10.90;99.90
22235;DHT22;11286;45.596;5.284;2022-12-29T05:17:09;10.90;99.90
22235;DHT22;11286;45.596;5.284;2022-12-29T05:19:35;10.90;99.90
22235;DHT22;11286;45.596;5.284;2022-12-29T05:22:00;10.90;99.90
22235;DHT22;11286;45.596;5.284;2022-12-29T05:24:26;10.90;99.90
22235;DHT22;11286;45.596;5.284;2022-12-29T05:26:52;10.80;99.90
22235;DHT22;11286;45.596;5.284;2022-12-29T05:29:17;10.90;99.90
22235;DHT22;11286;45.596;5.284;2022-12-29T05:31:43;10.90;99.90
22235;DHT22;11286;45.596;5.284;2022-12-29T05:34:11;10.90;99.90
22235;DHT22;11286;45.596;5.284;2022-12-29T05:36:37;10.90;99.90
22235;DHT22;11286;45.596;5.284;2022-12-29T05:39:03;10.90;99.90
22235;DHT22;11286;45.596;5.284;2022-12-29T05:41:28;11.00;99.90
22235;DHT22;11286;45.596;5.284;2022-12-29T05:43:54;11.00;99.90
22235;DHT22;11286;45.596;5.284;2022-12-29T05:46:20;10.90;99.90
22235;DHT22;11286;45.596;5.284;2022-12-29T05:48:45;11.00;99.90
22235;DHT22;11286;45.596;5.284;2022-12-29T05:51:11;11.00;99.90
22235;DHT22;11286;45.596;5.284;2022-12-29T05:53:37;11.00;99.90
22235;DHT22;11286;45.596;5.284;2022-12-29T05:56:02;11.00;99.90
22235;DHT22;11286;45.596;5.284;2022-12-29T05:58:28;11.00;99.90
22235;DHT22;11286;45.596;5.284;2022-12-29T06:00:54;10.90;99.90
22235;DHT22;11286;45.596;5.284;2022-12-29T06:03:19;10.90;99.90
22235;DHT22;11286;45.596;5.284;2022-12-29T06:05:45;10.90;99.90
22235;DHT22;11286;45.596;5.284;2022-12-29T06:08:11;10.90;99.90
22235;DHT22;11286;45.596;5.284;2022-12-29T06:10:37;10.90;99.90
22235;DHT22;11286;45.596;5.284;2022-12-29T06:13:03;10.90;99.90
22235;DHT22;11286;45.596;5.284;2022-12-29T06:15:34;10.90;99.90
22235;DHT22;11286;45.596;5.284;2022-12-29T06:18:00;11.00;99.90
22235;DHT22;11286;45.596;5.284;2022-12-29T06:20:25;11.00;99.90
22235;DHT22;11286;45.596;5.284;2022-12-29T06:22:51;11.00;99.90
22235;DHT22;11286;45.596;5.284;2022-12-29T06:25:17;11.00;99.90
22235;DHT22;11286;45.596;5.284;2022-12-29T06:27:43;11.10;99.90
22235;DHT22;11286;45.596;5.284;2022-12-29T06:30:10;11.10;99.90
22235;DHT22;11286;45.596;5.284;2022-12-29T06:32:36;11.00;99.90
22235;DHT22;11286;45.596;5.284;2022-12-29T06:35:03;11.00;99.90
22235;DHT22;11286;45.596;5.284;2022-12-29T06:37:29;11.10;99.90
22235;DHT22;11286;45.596;5.284;2022-12-29T06:39:55;11.10;99.90
22235;DHT22;11286;45.596;5.284;2022-12-29T06:42:20;11.10;99.90
22235;DHT22;11286;45.596;5.284;2022-12-29T06:44:46;11.20;99.90
22235;DHT22;11286;45.596;5.284;2022-12-29T06:47:12;11.10;99.90
22235;DHT22;11286;45.596;5.284;2022-12-29T06:49:37;11.10;99.90
22235;DHT22;11286;45.596;5.284;2022-12-29T06:52:03;11.20;99.90
22235;DHT22;11286;45.596;5.284;2022-12-29T06:54:30;11.20;99.90
22235;DHT22;11286;45.596;5.284;2022-12-29T06:56:56;11.10;99.90
22235;DHT22;11286;45.596;5.284;2022-12-29T06:59:22;11.20;99.90
22235;DHT22;11286;45.596;5.284;2022-12-29T07:01:48;11.10;99.90
22235;DHT22;11286;45.596;5.284;2022-12-29T07:04:13;11.10;99.90
22235;DHT22;11286;45.596;5.284;2022-12-29T07:06:39;11.10;99.90
22235;DHT22;11286;45.596;5.284;2022-12-29T07:09:06;11.10;99.90
22235;DHT22;11286;45.596;5.284;2022-12-29T07:11:32;11.10;99.90
22235;DHT22;11286;45.596;5.284;2022-12-29T07:13:58;11.00;99.90
22235;DHT22;11286;45.596;5.284;2022-12-29T07:16:24;11.10;99.90
22235;DHT22;11286;45.596;5.284;2022-12-29T07:18:50;11.00;99.90
22235;DHT22;11286;45.596;5.284;2022-12-29T07:21:17;11.00;99.90
22235;DHT22;11286;45.596;5.284;2022-12-29T07:23:43;11.10;99.90
22235;DHT22;11286;45.596;5.284;2022-12-29T07:26:11;11.10;99.90
22235;DHT22;11286;45.596;5.284;2022-12-29T07:28:38;11.10;99.90
22235;DHT22;11286;45.596;5.284;2022-12-29T07:31:05;11.10;99.90
22235;DHT22;11286;45.596;5.284;2022-12-29T07:33:31;11.20;99.90
22235;DHT22;11286;45.596;5.284;2022-12-29T07:35:57;11.10;99.90
22235;DHT22;11286;45.596;5.284;2022-12-29T07:38:23;11.30;99.90
22235;DHT22;11286;45.596;5.284;2022-12-29T07:40:49;11.30;99.90
22235;DHT22;11286;45.596;5.284;2022-12-29T07:43:15;11.30;99.90
22235;DHT22;11286;45.596;5.284;2022-12-29T07:45:40;11.30;99.90
22235;DHT22;11286;45.596;5.284;2022-12-29T07:48:06;11.40;99.90
22235;DHT22;11286;45.596;5.284;2022-12-29T07:50:36;11.50;99.90
22235;DHT22;11286;45.596;5.284;2022-12-29T07:53:02;11.60;99.90
22235;DHT22;11286;45.596;5.284;2022-12-29T07:55:28;11.60;99.90
22235;DHT22;11286;45.596;5.284;2022-12-29T07:57:55;11.80;99.90
22235;DHT22;11286;45.596;5.284;2022-12-29T08:00:21;12.00;99.90
22235;DHT22;11286;45.596;5.284;2022-12-29T08:02:48;12.10;99.90
22235;DHT22;11286;45.596;5.284;2022-12-29T08:05:14;12.20;99.90
22235;DHT22;11286;45.596;5.284;2022-12-29T08:07:42;12.60;99.90
22235;DHT22;11286;45.596;5.284;2022-12-29T08:10:09;15.40;99.90
22235;DHT22;11286;45.596;5.284;2022-12-29T08:12:35;16.60;99.90
22235;DHT22;11286;45.596;5.284;2022-12-29T08:15:00;16.30;99.90
22235;DHT22;11286;45.596;5.284;2022-12-29T08:17:26;17.30;99.90
22235;DHT22;11286;45.596;5.284;2022-12-29T08:19:52;16.80;99.90
22235;DHT22;11286;45.596;5.284;2022-12-29T08:22:17;15.50;99.90
22235;DHT22;11286;45.596;5.284;2022-12-29T08:24:43;15.30;99.90
22235;DHT22;11286;45.596;5.284;2022-12-29T08:27:08;15.30;99.90
22235;DHT22;11286;45.596;5.284;2022-12-29T08:29:34;15.80;99.90
22235;DHT22;11286;45.596;5.284;2022-12-29T08:31:59;16.40;99.90
22235;DHT22;11286;45.596;5.284;2022-12-29T08:34:25;16.90;99.90
22235;DHT22;11286;45.596;5.284;2022-12-29T08:36:51;18.00;99.90
22235;DHT22;11286;45.596;5.284;2022-12-29T08:39:16;15.60;99.90
22235;DHT22;11286;45.596;5.284;2022-12-29T08:41:42;14.20;99.90
22235;DHT22;11286;45.596;5.284;2022-12-29T08:44:08;13.60;99.90
22235;DHT22;11286;45.596;5.284;2022-12-29T08:46:33;13.20;99.90
22235;DHT22;11286;45.596;5.284;2022-12-29T08:48:59;13.50;99.90
22235;DHT22;11286;45.596;5.284;2022-12-29T08:51:25;13.70;99.90
22235;DHT22;11286;45.596;5.284;2022-12-29T08:53:50;13.90;99.90
22235;DHT22;11286;45.596;5.284;2022-12-29T08:56:16;14.20;99.90
22235;DHT22;11286;45.596;5.284;2022-12-29T08:58:42;17.60;99.90
22235;DHT22;11286;45.596;5.284;2022-12-29T09:01:08;20.30;99.90
22235;DHT22;11286;45.596;5.284;2022-12-29T09:03:34;20.50;99.90
22235;DHT22;11286;45.596;5.284;2022-12-29T09:06:00;20.50;99.90
22235;DHT22;11286;45.596;5.284;2022-12-29T09:08:25;17.90;99.90
22235;DHT22;11286;45.596;5.284;2022-12-29T09:10:51;17.00;99.90
22235;DHT22;11286;45.596;5.284;2022-12-29T09:13:18;19.30;99.90
22235;DHT22;11286;45.596;5.284;2022-12-29T09:15:44;21.10;99.90
22235;DHT22;11286;45.596;5.284;2022-12-29T09:18:11;22.00;99.90
22235;DHT22;11286;45.596;5.284;2022-12-29T09:20:37;22.30;99.90
22235;DHT22;11286;45.596;5.284;2022-12-29T09:23:03;22.90;99.90
22235;DHT22;11286;45.596;5.284;2022-12-29T09:25:29;23.20;99.90
22235;DHT22;11286;45.596;5.284;2022-12-29T09:27:55;22.40;99.90
22235;DHT22;11286;45.596;5.284;2022-12-29T09:30:22;22.30;99.90
22235;DHT22;11286;45.596;5.284;2022-12-29T09:32:49;23.20;99.90
22235;DHT22;11286;45.596;5.284;2022-12-29T09:35:15;24.20;99.90
22235;DHT22;11286;45.596;5.284;2022-12-29T09:37:42;23.40;99.90
22235;DHT22;11286;45.596;5.284;2022-12-29T09:40:30;23.60;99.90
22235;DHT22;11286;45.596;5.284;2022-12-29T09:43:28;22.30;99.90
22235;DHT22;11286;45.596;5.284;2022-12-29T09:48:39;21.50;99.90
22235;DHT22;11286;45.596;5.284;2022-12-29T09:51:13;21.70;99.90
22235;DHT22;11286;45.596;5.284;2022-12-29T09:53:46;24.50;99.90
22235;DHT22;11286;45.596;5.284;2022-12-29T09:56:18;24.70;99.90
22235;DHT22;11286;45.596;5.284;2022-12-29T09:59:00;26.20;99.90
22235;DHT22;11286;45.596;5.284;2022-12-29T10:02:00;26.70;99.90
22235;DHT22;11286;45.596;5.284;2022-12-29T10:04:30;27.40;99.90
22235;DHT22;11286;45.596;5.284;2022-12-29T10:07:03;25.80;99.90
22235;DHT22;11286;45.596;5.284;2022-12-29T10:15:16;26.70;99.90
22235;DHT22;11286;45.596;5.284;2022-12-29T10:21:25;27.10;99.90
22235;DHT22;11286;45.596;5.284;2022-12-29T10:23:46;25.70;99.90
22235;DHT22;11286;45.596;5.284;2022-12-29T10:26:26;23.70;99.90
22235;DHT22;11286;45.596;5.284;2022-12-29T10:29:03;24.70;99.90
22235;DHT22;11286;45.596;5.284;2022-12-29T10:31:42;21.80;99.90
22235;DHT22;11286;45.596;5.284;2022-12-29T10:34:43;23.30;99.90
22235;DHT22;11286;45.596;5.284;2022-12-29T10:37:29;24.00;99.90
22235;DHT22;11286;45.596;5.284;2022-12-29T10:39:58;23.60;99.90
22235;DHT22;11286;45.596;5.284;2022-12-29T10:42:33;19.10;99.90
22235;DHT22;11286;45.596;5.284;2022-12-29T10:45:00;18.00;99.90
22235;DHT22;11286;45.596;5.284;2022-12-29T10:47:29;18.80;99.90
22235;DHT22;11286;45.596;5.284;2022-12-29T10:49:56;21.10;99.90
22235;DHT22;11286;45.596;5.284;2022-12-29T10:52:25;23.70;99.90
22235;DHT22;11286;45.596;5.284;2022-12-29T10:55:02;23.40;99.90
22235;DHT22;11286;45.596;5.284;2022-12-29T10:57:36;22.30;99.90
22235;DHT22;11286;45.596;5.284;2022-12-29T11:00:16;21.80;99.90
22235;DHT22;11286;45.596;5.284;2022-12-29T11:08:27;18.00;99.90
22235;DHT22;11286;45.596;5.284;2022-12-29T11:11:09;18.10;99.90
22235;DHT22;11286;45.596;5.284;2022-12-29T11:13:47;18.00;99.90
22235;DHT22;11286;45.596;5.284;2022-12-29T11:16:13;17.50;99.90
22235;DHT22;11286;45.596;5.284;2022-12-29T11:18:41;17.20;99.90
22235;DHT22;11286;45.596;5.284;2022-12-29T11:21:36;17.10;99.90
22235;DHT22;11286;45.596;5.284;2022-12-29T11:24:28;16.70;99.90
22235;DHT22;11286;45.596;5.284;2022-12-29T11:26:55;16.20;99.90
22235;DHT22;11286;45.596;5.284;2022-12-29T11:29:28;16.00;99.90
22235;DHT22;11286;45.596;5.284;2022-12-29T11:31:58;15.60;99.90
22235;DHT22;11286;45.596;5.284;2022-12-29T11:34:31;15.70;99.90
22235;DHT22;11286;45.596;5.284;2022-12-29T11:39:43;16.00;99.90
22235;DHT22;11286;45.596;5.284;2022-12-29T11:42:17;16.00;99.90
22235;DHT22;11286;45.596;5.284;2022-12-29T11:44:46;16.10;99.90
22235;DHT22;11286;45.596;5.284;2022-12-29T11:47:30;15.90;99.90
22235;DHT22;11286;45.596;5.284;2022-12-29T11:50:02;16.10;99.90
22235;DHT22;11286;45.596;5.284;2022-12-29T11:52:32;16.20;99.90
22235;DHT22;11286;45.596;5.284;2022-12-29T11:55:03;16.40;99.90
22235;DHT22;11286;45.596;5.284;2022-12-29T11:57:31;16.30;99.90
22235;DHT22;11286;45.596;5.284;2022-12-29T11:59:59;16.30;99.90
22235;DHT22;11286;45.596;5.284;2022-12-29T12:05:39;16.50;99.90
22235;DHT22;11286;45.596;5.284;2022-12-29T12:08:11;16.10;99.90
22235;DHT22;11286;45.596;5.284;2022-12-29T12:16:48;15.90;99.90
22235;DHT22;11286;45.596;5.284;2022-12-29T12:21:59;15.70;99.90
22235;DHT22;11286;45.596;5.284;2022-12-29T12:24:47;16.00;99.90
22235;DHT22;11286;45.596;5.284;2022-12-29T12:27:26;15.80;99.90
22235;DHT22;11286;45.596;5.284;2022-12-29T12:36:22;15.50;99.90
22235;DHT22;11286;45.596;5.284;2022-12-29T12:41:47;15.20;99.90
22235;DHT22;11286;45.596;5.284;2022-12-29T12:47:39;15.10;99.90
22235;DHT22;11286;45.596;5.284;2022-12-29T12:50:39;15.40;99.90
22235;DHT22;11286;45.596;5.284;2022-12-29T12:53:45;15.80;99.90
22235;DHT22;11286;45.596;5.284;2022-12-29T13:04:40;15.50;99.90
22235;DHT22;11286;45.596;5.284;2022-12-29T13:07:44;15.20;99.90
22235;DHT22;11286;45.596;5.284;2022-12-29T13:15:55;15.60;99.90
22235;DHT22;11286;45.596;5.284;2022-12-29T13:22:00;15.20;99.90
22235;DHT22;11286;45.596;5.284;2022-12-29T13:24:35;15.20;99.90
22235;DHT22;11286;45.596;5.284;2022-12-29T13:27:28;15.40;99.90
22235;DHT22;11286;45.596;5.284;2022-12-29T13:30:10;15.50;99.90
22235;DHT22;11286;45.596;5.284;2022-12-29T13:33:17;15.30;99.90
22235;DHT22;11286;45.596;5.284;2022-12-29T13:35:59;15.50;99.90
22235;DHT22;11286;45.596;5.284;2022-12-29T13:38:48;15.70;99.90
22235;DHT22;11286;45.596;5.284;2022-12-29T13:41:30;15.80;99.90
22235;DHT22;11286;45.596;5.284;2022-12-29T13:43:57;15.50;99.90
22235;DHT22;11286;45.596;5.284;2022-12-29T13:46:28;15.40;99.90
22235;DHT22;11286;45.596;5.284;2022-12-29T13:49:02;15.40;99.90
22235;DHT22;11286;45.596;5.284;2022-12-29T13:51:31;15.40;99.90
22235;DHT22;11286;45.596;5.284;2022-12-29T13:54:14;15.20;99.90
22235;DHT22;11286;45.596;5.284;2022-12-29T13:56:56;15.20;99.90
22235;DHT22;11286;45.596;5.284;2022-12-29T13:59:51;15.10;99.90
22235;DHT22;11286;45.596;5.284;2022-12-29T14:02:21;14.90;99.90
22235;DHT22;11286;45.596;5.284;2022-12-29T14:07:22;14.70;99.90
22235;DHT22;11286;45.596;5.284;2022-12-29T14:09:52;14.70;99.90
22235;DHT22;11286;45.596;5.284;2022-12-29T14:15:03;14.50;99.90
22235;DHT22;11286;45.596;5.284;2022-12-29T14:17:29;14.40;99.90
22235;DHT22;11286;45.596;5.284;2022-12-29T14:19:55;14.30;99.90
22235;DHT22;11286;45.596;5.284;2022-12-29T14:22:25;14.30;99.90
22235;DHT22;11286;45.596;5.284;2022-12-29T14:24:51;14.30;99.90
22235;DHT22;11286;45.596;5.284;2022-12-29T14:29:45;14.10;99.90
22235;DHT22;11286;45.596;5.284;2022-12-29T14:34:55;14.10;99.90
22235;DHT22;11286;45.596;5.284;2022-12-29T14:37:26;14.10;99.90
22235;DHT22;11286;45.596;5.284;2022-12-29T14:40:15;14.10;99.90
22235;DHT22;11286;45.596;5.284;2022-12-29T14:42:43;14.10;99.90
22235;DHT22;11286;45.596;5.284;2022-12-29T14:47:49;13.90;99.90
22235;DHT22;11286;45.596;5.284;2022-12-29T14:50:18;14.00;99.90
22235;DHT22;11286;45.596;5.284;2022-12-29T14:55:40;13.90;99.90
22235;DHT22;11286;45.596;5.284;2022-12-29T15:00:49;13.90;99.90
22235;DHT22;11286;45.596;5.284;2022-12-29T15:03:55;13.90;99.90
22235;DHT22;11286;45.596;5.284;2022-12-29T15:06:23;13.90;99.90
22235;DHT22;11286;45.596;5.284;2022-12-29T15:08:54;13.70;99.90
22235;DHT22;11286;45.596;5.284;2022-12-29T15:14:35;13.70;99.90
22235;DHT22;11286;45.596;5.284;2022-12-29T15:17:09;13.70;99.90
22235;DHT22;11286;45.596;5.284;2022-12-29T15:19:36;13.60;99.90
22235;DHT22;11286;45.596;5.284;2022-12-29T15:22:02;13.70;99.90
22235;DHT22;11286;45.596;5.284;2022-12-29T15:24:28;13.70;99.90
22235;DHT22;11286;45.596;5.284;2022-12-29T15:26:54;13.60;99.90
22235;DHT22;11286;45.596;5.284;2022-12-29T15:29:41;13.60;99.90
22235;DHT22;11286;45.596;5.284;2022-12-29T15:32:20;13.50;99.90
22235;DHT22;11286;45.596;5.284;2022-12-29T15:34:49;13.50;99.90
22235;DHT22;11286;45.596;5.284;2022-12-29T15:37:24;13.60;99.90
22235;DHT22;11286;45.596;5.284;2022-12-29T15:39:51;13.50;99.90
22235;DHT22;11286;45.596;5.284;2022-12-29T15:42:29;13.50;99.90
22235;DHT22;11286;45.596;5.284;2022-12-29T15:44:57;13.50;99.90
22235;DHT22;11286;45.596;5.284;2022-12-29T15:47:26;13.60;99.90
22235;DHT22;11286;45.596;5.284;2022-12-29T15:50:15;13.60;99.90
22235;DHT22;11286;45.596;5.284;2022-12-29T15:52:42;13.60;99.90
22235;DHT22;11286;45.596;5.284;2022-12-29T15:55:37;13.50;99.90
22235;DHT22;11286;45.596;5.284;2022-12-29T15:58:05;13.50;99.90
22235;DHT22;11286;45.596;5.284;2022-12-29T16:00:34;13.40;99.90
22235;DHT22;11286;45.596;5.284;2022-12-29T16:03:03;13.40;99.90
22235;DHT22;11286;45.596;5.284;2022-12-29T16:05:37;13.40;99.90
22235;DHT22;11286;45.596;5.284;2022-12-29T16:08:26;13.40;99.90
22235;DHT22;11286;45.596;5.284;2022-12-29T16:10:53;13.40;99.90
22235;DHT22;11286;45.596;5.284;2022-12-29T16:13:33;13.40;99.90
22235;DHT22;11286;45.596;5.284;2022-12-29T16:16:02;13.30;99.90
22235;DHT22;11286;45.596;5.284;2022-12-29T16:18:36;13.30;99.90
22235;DHT22;11286;45.596;5.284;2022-12-29T16:21:16;13.30;99.90
22235;DHT22;11286;45.596;5.284;2022-12-29T16:23:48;13.30;99.90
22235;DHT22;11286;45.596;5.284;2022-12-29T16:26:20;13.30;99.90
22235;DHT22;11286;45.596;5.284;2022-12-29T16:29:00;13.20;99.90
22235;DHT22;11286;45.596;5.284;2022-12-29T16:34:24;13.20;99.90
22235;DHT22;11286;45.596;5.284;2022-12-29T16:36:55;13.20;99.90
22235;DHT22;11286;45.596;5.284;2022-12-29T16:41:52;13.30;99.90
22235;DHT22;11286;45.596;5.284;2022-12-29T16:44:23;13.20;99.90
22235;DHT22;11286;45.596;5.284;2022-12-29T16:49:32;13.30;99.90
22235;DHT22;11286;45.596;5.284;2022-12-29T16:51:58;13.30;99.90
22235;DHT22;11286;45.596;5.284;2022-12-29T16:54:32;13.20;99.90
22235;DHT22;11286;45.596;5.284;2022-12-29T16:56:59;13.20;99.90
22235;DHT22;11286;45.596;5.284;2022-12-29T16:59:36;13.20;99.90
22235;DHT22;11286;45.596;5.284;2022-12-29T17:02:14;13.20;99.90
22235;DHT22;11286;45.596;5.284;2022-12-29T17:04:40;13.20;99.90
22235;DHT22;11286;45.596;5.284;2022-12-29T17:07:32;13.20;99.90
22235;DHT22;11286;45.596;5.284;2022-12-29T17:09:57;13.10;99.90
22235;DHT22;11286;45.596;5.284;2022-12-29T17:12:27;13.10;99.90
22235;DHT22;11286;45.596;5.284;2022-12-29T17:15:01;13.20;99.90
22235;DHT22;11286;45.596;5.284;2022-12-29T17:17:40;13.20;99.90
22235;DHT22;11286;45.596;5.284;2022-12-29T17:20:27;13.20;99.90
22235;DHT22;11286;45.596;5.284;2022-12-29T17:22:54;13.30;99.90
22235;DHT22;11286;45.596;5.284;2022-12-29T17:25:29;13.30;99.90
22235;DHT22;11286;45.596;5.284;2022-12-29T17:27:59;13.20;99.90
22235;DHT22;11286;45.596;5.284;2022-12-29T17:30:26;13.20;99.90
22235;DHT22;11286;45.596;5.284;2022-12-29T17:32:57;12.90;99.90
22235;DHT22;11286;45.596;5.284;2022-12-29T17:35:23;12.80;99.90
22235;DHT22;11286;45.596;5.284;2022-12-29T17:37:49;12.70;99.90
22235;DHT22;11286;45.596;5.284;2022-12-29T17:40:26;12.60;99.90
22235;DHT22;11286;45.596;5.284;2022-12-29T17:42:55;12.60;99.90
22235;DHT22;11286;45.596;5.284;2022-12-29T17:45:29;12.50;99.90
22235;DHT22;11286;45.596;5.284;2022-12-29T17:47:56;12.40;99.90
22235;DHT22;11286;45.596;5.284;2022-12-29T17:50:25;12.30;99.90